KCON/CON METAR and TAF weather

Enter ICAO airport designator
Station Type Date Time Source
KCON METAR 2018/12/10 19:51 UTC NOAA

KCON 101951Z AUTO 33007KT 10SM CLR 00/M11 A3010 RMK AO2 SLP200 T00001111


Station Type Date Time Source
KCON Decoded METAR 2018/12/10 19:51 UTC NOAA

Concord, Concord Municipal Airport, NH, United States (KCON) 43-11-43N 071-30-04W 103M
Dec 10, 2018 - 02:51 PM EST / 2018.12.10 1951 UTC
Wind: from the NNW (330 degrees) at 8 MPH (7 KT):0
Visibility: 10 mile(s):0
Sky conditions: clear
Temperature: 32.0 F (0.0 C)
Windchill: 24 F (-4 C):1
Dew Point: 12.0 F (-11.1 C)
Relative Humidity: 42%
Pressure (altimeter): 30.1 in. Hg (1019 hPa)
ob: KCON 101951Z AUTO 33007KT 10SM CLR 00/M11 A3010 RMK AO2 SLP200 T00001111
cycle: 20

Station Type Date Time Source
KCON TAF 2018/12/10 20:33 UTC NOAA

TAF
AMD KCON 101931Z 1020/1118 33011KT P6SM SKC
FM111200 00000KT P6SM BKN250


Example: see airport list